Terminal Aerodrome Forecast
Issued by NWS

Home | Current Version | Previous Version | Text Only | Print | Product List | Glossary On
Versions: 1 2 3 4 5 6 7 8 9 10 11 12 13
000
FTAK31 PANC 310544
TAFAIL
TAF
PAIL 310544Z 3106/0106 29009KT P6SM SKC
     FM310900 36010KT P6SM SCT030
     FM311500 04016KT P6SM SCT030 BKN080
     FM312200 06015G20KT P6SM VCSH BKN030 OVC080=

USA.gov is the U.S. government's official web portal to all federal, state and local government web resources and services.